createdAt,value
2019-02-19T00:00:03.611Z,82
2019-02-19T00:01:03.306Z,82
2019-02-19T00:02:03.487Z,82
2019-02-19T00:03:02.752Z,82
2019-02-19T00:04:03.226Z,82
2019-02-19T00:05:03.739Z,82
2019-02-19T00:06:03.397Z,82
2019-02-19T00:07:02.957Z,82
2019-02-19T00:08:03.242Z,82
2019-02-19T00:09:03.395Z,82
2019-02-19T00:10:02.909Z,82
2019-02-19T00:11:02.700Z,82
2019-02-19T00:12:03.405Z,82
2019-02-19T00:13:02.534Z,82
2019-02-19T00:14:03.078Z,82
2019-02-19T00:15:08.883Z,82
2019-02-19T00:16:02.934Z,82
2019-02-19T00:17:03.320Z,82
2019-02-19T00:18:03.614Z,82
2019-02-19T00:19:03.141Z,82
2019-02-19T00:20:03.489Z,82
2019-02-19T00:21:03.049Z,82
2019-02-19T00:22:03.325Z,82
2019-02-19T00:23:03.745Z,82
2019-02-19T00:24:02.999Z,82
2019-02-19T00:25:03.540Z,82
2019-02-19T00:26:02.851Z,82
2019-02-19T00:27:03.731Z,82
2019-02-19T00:28:03.756Z,82
2019-02-19T00:29:03.118Z,82
2019-02-19T00:30:03.019Z,82
2019-02-19T00:31:03.620Z,82
2019-02-19T00:32:03.756Z,82
2019-02-19T00:33:02.806Z,82
2019-02-19T00:34:03.067Z,82
2019-02-19T00:35:03.665Z,82
2019-02-19T00:36:05.080Z,82
2019-02-19T00:37:03.140Z,83
2019-02-19T00:38:03.729Z,83
2019-02-19T00:39:02.824Z,83
2019-02-19T00:40:03.045Z,83
2019-02-19T00:41:03.654Z,83
2019-02-19T00:42:02.933Z,83
2019-02-19T00:43:03.932Z,83
2019-02-19T00:44:03.143Z,83
2019-02-19T00:45:03.619Z,83
2019-02-19T00:46:03.047Z,83
2019-02-19T00:47:03.610Z,83
2019-02-19T00:48:02.948Z,83
2019-02-19T00:49:03.082Z,83
2019-02-19T00:50:03.778Z,83
2019-02-19T00:51:02.947Z,83
2019-02-19T00:52:03.710Z,83
2019-02-19T00:53:02.863Z,83
2019-02-19T00:54:03.035Z,83
2019-02-19T00:55:03.223Z,83
2019-02-19T00:56:03.523Z,83
2019-02-19T00:57:03.765Z,83
2019-02-19T00:58:03.463Z,83
2019-02-19T00:59:03.785Z,83
2019-02-19T01:00:03.433Z,83
2019-02-19T01:01:03.717Z,83
2019-02-19T01:02:03.177Z,83
2019-02-19T01:03:03.589Z,83
2019-02-19T01:04:02.818Z,83
2019-02-19T01:05:03.556Z,83
2019-02-19T01:06:02.916Z,83
2019-02-19T01:07:03.720Z,83
2019-02-19T01:08:03.334Z,83
2019-02-19T01:09:03.847Z,83
2019-02-19T01:10:03.590Z,83
2019-02-19T01:11:03.939Z,83
2019-02-19T01:12:02.957Z,83
2019-02-19T01:13:03.771Z,83
2019-02-19T01:14:03.085Z,83
2019-02-19T01:15:02.804Z,83
2019-02-19T01:16:03.023Z,83
2019-02-19T01:17:03.823Z,83
2019-02-19T01:18:02.863Z,83
2019-02-19T01:19:03.692Z,83
2019-02-19T01:20:02.956Z,83
2019-02-19T01:21:03.701Z,83
2019-02-19T01:22:03.145Z,83
2019-02-19T01:23:03.600Z,83
2019-02-19T01:24:02.975Z,83
2019-02-19T01:25:03.991Z,83
2019-02-19T01:26:02.863Z,83
2019-02-19T01:27:03.451Z,83
2019-02-19T01:28:02.890Z,83
2019-02-19T01:29:03.457Z,83
2019-02-19T01:30:03.853Z,83
2019-02-19T01:31:02.915Z,83
2019-02-19T01:32:03.406Z,83
2019-02-19T01:33:03.029Z,83
2019-02-19T01:34:03.450Z,83
2019-02-19T01:35:03.745Z,83
2019-02-19T01:36:03.339Z,83
2019-02-19T01:37:03.031Z,83
2019-02-19T01:38:03.223Z,83
2019-02-19T01:39:02.823Z,83
2019-02-19T01:40:03.470Z,83
2019-02-19T01:41:04.221Z,83
2019-02-19T01:42:03.199Z,83
2019-02-19T01:43:03.476Z,83
2019-02-19T01:44:02.891Z,83
2019-02-19T01:45:03.691Z,83
2019-02-19T01:46:02.815Z,83
2019-02-19T01:47:03.144Z,83
2019-02-19T01:48:02.787Z,83
2019-02-19T01:49:03.204Z,84
2019-02-19T01:50:03.703Z,83
2019-02-19T01:51:03.080Z,84
2019-02-19T01:52:03.416Z,83
2019-02-19T01:53:02.870Z,84
2019-02-19T01:54:03.676Z,84
2019-02-19T01:55:02.836Z,84
2019-02-19T01:56:03.393Z,84
2019-02-19T01:57:02.829Z,84
2019-02-19T01:58:03.129Z,84
2019-02-19T01:59:03.476Z,84
2019-02-19T02:00:02.712Z,84
2019-02-19T02:01:03.404Z,84
2019-02-19T02:02:03.694Z,84
2019-02-19T02:03:03.305Z,84
2019-02-19T02:04:03.412Z,84
2019-02-19T02:05:03.226Z,84
2019-02-19T02:06:03.586Z,84
2019-02-19T02:07:04.764Z,84
2019-02-19T02:08:03.505Z,84
2019-02-19T02:09:02.973Z,84
2019-02-19T02:10:03.457Z,84
2019-02-19T02:11:02.965Z,84
2019-02-19T02:12:03.440Z,84
2019-02-19T02:13:03.117Z,84
2019-02-19T02:14:03.180Z,84
2019-02-19T02:15:02.850Z,84
2019-02-19T02:16:02.793Z,84
2019-02-19T02:17:03.688Z,84
2019-02-19T02:18:02.827Z,84
2019-02-19T02:19:04.247Z,84
2019-02-19T02:20:03.244Z,84
2019-02-19T02:21:03.422Z,84
2019-02-19T02:22:03.083Z,84
2019-02-19T02:23:03.655Z,84
2019-02-19T02:24:02.914Z,84
2019-02-19T02:25:03.478Z,84
2019-02-19T02:26:03.040Z,84
2019-02-19T02:27:03.192Z,84
2019-02-19T02:28:02.824Z,84
2019-02-19T02:29:03.252Z,84
2019-02-19T02:30:02.875Z,84
2019-02-19T02:31:03.333Z,84
2019-02-19T02:32:03.848Z,84
2019-02-19T02:33:03.174Z,84
2019-02-19T02:34:03.605Z,84
2019-02-19T02:35:03.051Z,84
2019-02-19T02:36:03.685Z,84
2019-02-19T02:37:03.603Z,84
2019-02-19T02:38:03.516Z,84
2019-02-19T02:39:03.146Z,84
2019-02-19T02:40:03.267Z,85
2019-02-19T02:41:02.884Z,84
2019-02-19T02:42:03.113Z,85
2019-02-19T02:43:03.758Z,85
2019-02-19T02:44:03.026Z,85
2019-02-19T02:45:03.460Z,85
2019-02-19T02:46:03.662Z,85
2019-02-19T02:47:03.391Z,84
2019-02-19T02:48:03.642Z,85
2019-02-19T02:49:03.123Z,85
2019-02-19T02:50:03.691Z,84
2019-02-19T02:51:03.137Z,85
2019-02-19T02:52:03.367Z,85
2019-02-19T02:53:02.901Z,85
2019-02-19T02:54:03.530Z,85
2019-02-19T02:55:03.077Z,85
2019-02-19T02:56:03.281Z,85
2019-02-19T02:57:03.134Z,85
2019-02-19T02:58:03.280Z,84
2019-02-19T02:59:02.974Z,84
2019-02-19T03:00:03.757Z,85
2019-02-19T03:01:03.652Z,85
2019-02-19T03:02:03.275Z,85
2019-02-19T03:03:03.772Z,85
2019-02-19T03:04:03.178Z,85
2019-02-19T03:05:03.512Z,85
2019-02-19T03:06:03.684Z,85
2019-02-19T03:07:03.393Z,85
2019-02-19T03:08:03.944Z,85
2019-02-19T03:09:03.244Z,85
2019-02-19T03:10:03.939Z,85
2019-02-19T03:11:03.103Z,85
2019-02-19T03:12:03.686Z,84
2019-02-19T03:13:02.955Z,84
2019-02-19T03:14:03.566Z,84
2019-02-19T03:15:02.890Z,85
2019-02-19T03:16:03.394Z,85
2019-02-19T03:17:03.050Z,85
2019-02-19T03:18:03.521Z,85
2019-02-19T03:19:02.855Z,84
2019-02-19T03:20:03.736Z,85
2019-02-19T03:21:03.077Z,85
2019-02-19T03:22:03.755Z,84
2019-02-19T03:23:02.965Z,85
2019-02-19T03:24:02.906Z,85
2019-02-19T03:25:03.883Z,84
2019-02-19T03:26:03.120Z,84
2019-02-19T03:27:03.569Z,84
2019-02-19T03:28:03.268Z,85
2019-02-19T03:29:03.673Z,84
2019-02-19T03:30:03.444Z,84
2019-02-19T03:31:03.655Z,84
2019-02-19T03:32:02.998Z,84
2019-02-19T03:33:03.586Z,84
2019-02-19T03:34:02.851Z,84
2019-02-19T03:35:03.604Z,84
2019-02-19T03:36:03.093Z,84
2019-02-19T03:37:03.484Z,84
2019-02-19T03:38:03.732Z,84
2019-02-19T03:39:03.649Z,84
2019-02-19T03:40:03.178Z,84
2019-02-19T03:41:03.712Z,84
2019-02-19T03:42:02.954Z,84
2019-02-19T03:43:03.540Z,84
2019-02-19T03:44:03.838Z,84
2019-02-19T03:45:03.478Z,84
2019-02-19T03:46:12.787Z,84
2019-02-19T03:47:03.296Z,84
2019-02-19T03:48:03.552Z,84
2019-02-19T03:49:03.007Z,84
2019-02-19T03:50:03.421Z,84
2019-02-19T03:51:02.855Z,84
2019-02-19T03:52:03.325Z,84
2019-02-19T03:53:02.968Z,84
2019-02-19T03:54:03.792Z,84
2019-02-19T03:55:03.005Z,84
2019-02-19T03:56:03.325Z,84
2019-02-19T03:57:03.340Z,84
2019-02-19T03:58:02.969Z,84
2019-02-19T03:59:03.416Z,84
2019-02-19T04:00:03.652Z,84
2019-02-19T04:01:03.206Z,84
2019-02-19T04:02:03.444Z,84
2019-02-19T04:03:02.942Z,84
2019-02-19T04:04:03.486Z,84
2019-02-19T04:05:03.145Z,84
2019-02-19T04:06:03.451Z,84
2019-02-19T04:07:03.702Z,84
2019-02-19T04:08:03.171Z,84
2019-02-19T04:09:03.730Z,84
2019-02-19T04:10:03.205Z,84
2019-02-19T04:11:03.640Z,84
2019-02-19T04:12:03.042Z,84
2019-02-19T04:13:03.605Z,84
2019-02-19T04:14:03.265Z,84
2019-02-19T04:15:03.582Z,84
2019-02-19T04:16:02.797Z,84
2019-02-19T04:17:03.681Z,84
2019-02-19T04:18:03.032Z,84
2019-02-19T04:19:03.896Z,84
2019-02-19T04:20:03.719Z,84
2019-02-19T04:21:03.350Z,84
2019-02-19T04:22:03.696Z,84
2019-02-19T04:23:03.341Z,84
2019-02-19T04:24:03.767Z,84
2019-02-19T04:25:03.369Z,84
2019-02-19T04:26:03.048Z,84
2019-02-19T04:27:03.204Z,84
2019-02-19T04:28:03.424Z,84
2019-02-19T04:29:03.222Z,84
2019-02-19T04:30:02.894Z,84
2019-02-19T04:31:03.405Z,84
2019-02-19T04:32:03.524Z,84
2019-02-19T04:33:03.102Z,84
2019-02-19T04:34:03.622Z,84
2019-02-19T04:35:03.210Z,84
2019-02-19T04:36:03.467Z,84
2019-02-19T04:37:03.175Z,84
2019-02-19T04:38:03.544Z,84
2019-02-19T04:39:03.191Z,84
2019-02-19T04:40:03.814Z,84
2019-02-19T04:41:02.947Z,84
2019-02-19T04:42:03.311Z,84
2019-02-19T04:43:03.706Z,84
2019-02-19T04:44:03.440Z,84
2019-02-19T04:45:03.846Z,84
2019-02-19T04:46:03.102Z,84
2019-02-19T04:47:03.331Z,84
2019-02-19T04:48:03.122Z,84
2019-02-19T04:49:03.476Z,84
2019-02-19T04:50:03.094Z,84
2019-02-19T04:51:03.187Z,84
2019-02-19T04:52:02.927Z,84
2019-02-19T04:53:03.434Z,84
2019-02-19T04:54:03.015Z,84
2019-02-19T04:55:03.395Z,84
2019-02-19T04:56:02.858Z,84
2019-02-19T04:57:03.293Z,83
2019-02-19T04:58:02.915Z,83
2019-02-19T04:59:03.432Z,83
2019-02-19T05:00:02.911Z,83
2019-02-19T05:01:03.098Z,83
2019-02-19T05:02:03.537Z,83
2019-02-19T05:03:03.196Z,83
2019-02-19T05:04:03.583Z,83
2019-02-19T05:05:03.045Z,83
2019-02-19T05:06:03.352Z,83
2019-02-19T05:07:03.101Z,83
2019-02-19T05:08:03.658Z,83
2019-02-19T05:09:03.675Z,83
2019-02-19T05:10:03.629Z,83
2019-02-19T05:11:02.934Z,83
2019-02-19T05:12:03.070Z,83
2019-02-19T05:13:03.585Z,83
2019-02-19T05:14:03.046Z,83
2019-02-19T05:15:03.033Z,83
2019-02-19T05:16:03.220Z,83
2019-02-19T05:17:03.509Z,83
2019-02-19T05:18:03.216Z,83
2019-02-19T05:19:03.606Z,83
2019-02-19T05:20:03.009Z,83
2019-02-19T05:21:03.407Z,83
2019-02-19T05:22:03.770Z,83
2019-02-19T05:23:03.111Z,83
2019-02-19T05:24:03.511Z,83
2019-02-19T05:25:03.033Z,83
2019-02-19T05:26:03.806Z,83
2019-02-19T05:27:03.174Z,83
2019-02-19T05:28:03.702Z,83
2019-02-19T05:29:03.282Z,83
2019-02-19T05:30:03.609Z,83
2019-02-19T05:31:03.286Z,83
2019-02-19T05:32:03.668Z,83
2019-02-19T05:33:02.960Z,83
2019-02-19T05:34:03.286Z,83
2019-02-19T05:35:03.699Z,83
2019-02-19T05:36:02.856Z,83
2019-02-19T05:37:03.276Z,83
2019-02-19T05:38:03.195Z,83
2019-02-19T05:39:03.709Z,83
2019-02-19T05:40:03.391Z,83
2019-02-19T05:41:03.675Z,83
2019-02-19T05:42:03.325Z,83
2019-02-19T05:43:03.699Z,83
2019-02-19T05:44:03.122Z,83
2019-02-19T05:45:03.712Z,83
2019-02-19T05:46:03.230Z,83
2019-02-19T05:47:03.518Z,83
2019-02-19T05:48:05.530Z,83
2019-02-19T05:49:03.415Z,83
2019-02-19T05:50:02.965Z,83
2019-02-19T05:51:03.223Z,83
2019-02-19T05:52:03.097Z,83
2019-02-19T05:53:03.772Z,83
2019-02-19T05:54:03.262Z,83
2019-02-19T05:55:03.615Z,83
2019-02-19T05:56:02.852Z,83
2019-02-19T05:57:03.564Z,83
2019-02-19T05:58:02.901Z,83
2019-02-19T05:59:03.071Z,82
2019-02-19T06:00:02.983Z,82
2019-02-19T06:01:03.064Z,82
2019-02-19T06:02:03.615Z,82
2019-02-19T06:03:02.714Z,82
2019-02-19T06:04:03.632Z,82
2019-02-19T06:05:03.013Z,82
2019-02-19T06:06:03.296Z,82
2019-02-19T06:07:02.856Z,82
2019-02-19T06:08:03.438Z,82
2019-02-19T06:09:03.603Z,82
2019-02-19T06:10:03.361Z,82
2019-02-19T06:11:03.627Z,82
2019-02-19T06:12:03.098Z,82
2019-02-19T06:13:02.874Z,82
2019-02-19T06:14:03.092Z,82
2019-02-19T06:15:03.440Z,82
2019-02-19T06:16:03.128Z,82
2019-02-19T06:17:03.230Z,82
2019-02-19T06:18:03.696Z,82
2019-02-19T06:19:03.323Z,82
2019-02-19T06:20:02.877Z,82
2019-02-19T06:21:03.204Z,82
2019-02-19T06:22:03.951Z,82
2019-02-19T06:23:03.419Z,82
2019-02-19T06:24:02.717Z,82
2019-02-19T06:25:03.405Z,82
2019-02-19T06:26:03.530Z,82
2019-02-19T06:27:02.887Z,82
2019-02-19T06:28:03.587Z,82
2019-02-19T06:29:02.902Z,82
2019-02-19T06:30:03.683Z,82
2019-02-19T06:31:03.265Z,82
2019-02-19T06:32:03.520Z,82
2019-02-19T06:33:02.907Z,82
2019-02-19T06:34:03.504Z,82
2019-02-19T06:35:03.356Z,82
2019-02-19T06:36:03.474Z,82
2019-02-19T06:37:03.056Z,82
2019-02-19T06:38:03.300Z,82
2019-02-19T06:39:03.553Z,82
2019-02-19T06:40:03.200Z,82
2019-02-19T06:41:03.407Z,82
2019-02-19T06:42:02.931Z,82
2019-02-19T06:43:03.508Z,82
2019-02-19T06:44:02.936Z,82
2019-02-19T06:45:03.608Z,82
2019-02-19T06:46:03.098Z,82
2019-02-19T06:47:07.378Z,82
2019-02-19T06:48:02.876Z,82
2019-02-19T06:49:03.307Z,82
2019-02-19T06:50:03.039Z,82
2019-02-19T06:51:03.047Z,82
2019-02-19T06:52:03.827Z,82
2019-02-19T06:53:02.910Z,82
2019-02-19T06:54:02.731Z,82
2019-02-19T06:55:03.282Z,82
2019-02-19T06:56:02.694Z,82
2019-02-19T06:57:03.043Z,82
2019-02-19T06:58:03.748Z,82
2019-02-19T06:59:03.196Z,82
2019-02-19T07:00:03.863Z,82
2019-02-19T07:01:03.188Z,82
2019-02-19T07:02:02.943Z,82
2019-02-19T07:03:03.349Z,82
2019-02-19T07:04:02.896Z,82
2019-02-19T07:05:03.119Z,82
2019-02-19T07:06:02.914Z,82
2019-02-19T07:07:02.972Z,82
2019-02-19T07:08:03.673Z,82
2019-02-19T07:09:03.049Z,82
2019-02-19T07:10:03.539Z,82
2019-02-19T07:11:02.955Z,82
2019-02-19T07:12:03.835Z,81
2019-02-19T07:13:03.225Z,81
2019-02-19T07:14:03.329Z,81
2019-02-19T07:15:03.166Z,81
2019-02-19T07:16:03.579Z,81
2019-02-19T07:17:03.699Z,81
2019-02-19T07:18:03.410Z,81
2019-02-19T07:19:02.821Z,81
2019-02-19T07:20:03.351Z,81
2019-02-19T07:21:02.926Z,81
2019-02-19T07:22:03.283Z,81
2019-02-19T07:23:02.866Z,81
2019-02-19T07:24:04.979Z,81
2019-02-19T07:25:03.512Z,81
2019-02-19T07:26:03.133Z,81
2019-02-19T07:27:03.545Z,81
2019-02-19T07:28:02.957Z,81
2019-02-19T07:29:03.546Z,81
2019-02-19T07:30:03.775Z,81
2019-02-19T07:31:03.131Z,81
2019-02-19T07:32:03.083Z,81
2019-02-19T07:33:03.629Z,80
2019-02-19T07:34:02.967Z,80
2019-02-19T07:35:03.463Z,80
2019-02-19T07:36:02.824Z,80
2019-02-19T07:37:03.249Z,80
2019-02-19T07:38:03.695Z,80
2019-02-19T07:39:03.190Z,80
2019-02-19T07:40:02.983Z,80
2019-02-19T07:41:03.305Z,80
2019-02-19T07:42:03.633Z,80
2019-02-19T07:43:03.303Z,80
2019-02-19T07:44:03.293Z,80
2019-02-19T07:45:03.344Z,80
2019-02-19T07:46:02.967Z,80
2019-02-19T07:47:03.377Z,80
2019-02-19T07:48:03.536Z,80
2019-02-19T07:49:03.086Z,80
2019-02-19T07:50:03.858Z,80
2019-02-19T07:51:02.851Z,80
2019-02-19T07:52:03.475Z,80
2019-02-19T07:53:02.998Z,80
2019-02-19T07:54:03.516Z,80
2019-02-19T07:55:02.933Z,80
2019-02-19T07:56:03.266Z,80
2019-02-19T07:57:03.668Z,80
2019-02-19T07:58:03.198Z,80
2019-02-19T07:59:03.814Z,80
2019-02-19T08:00:03.119Z,80
2019-02-19T08:01:03.612Z,80
2019-02-19T08:02:03.843Z,80
2019-02-19T08:03:05.234Z,79
2019-02-19T08:04:02.900Z,79
2019-02-19T08:05:03.557Z,79
2019-02-19T08:06:03.544Z,79
2019-02-19T08:07:03.190Z,79
2019-02-19T08:08:03.618Z,79
2019-02-19T08:09:03.271Z,79
2019-02-19T08:10:03.832Z,79
2019-02-19T08:11:03.253Z,79
2019-02-19T08:12:03.727Z,78
2019-02-19T08:13:03.303Z,78
2019-02-19T08:14:03.793Z,78
2019-02-19T08:15:03.112Z,78
2019-02-19T08:16:03.270Z,78
2019-02-19T08:17:02.939Z,78
2019-02-19T08:18:03.466Z,78
2019-02-19T08:19:03.869Z,78
2019-02-19T08:20:03.669Z,78
2019-02-19T08:21:02.716Z,78
2019-02-19T08:22:03.300Z,78
2019-02-19T08:23:02.840Z,78
2019-02-19T08:24:03.389Z,78
2019-02-19T08:25:03.085Z,78
2019-02-19T08:26:03.109Z,77
2019-02-19T08:27:02.849Z,77
2019-02-19T08:28:03.389Z,77
2019-02-19T08:29:14.233Z,77
2019-02-19T08:30:03.652Z,77
2019-02-19T08:31:03.084Z,77
2019-02-19T08:32:03.541Z,76
2019-02-19T08:33:03.848Z,76
2019-02-19T08:34:03.130Z,76
2019-02-19T08:35:03.056Z,76
2019-02-19T08:36:03.167Z,77
2019-02-19T08:37:03.140Z,77
2019-02-19T08:38:03.265Z,76
2019-02-19T08:39:03.592Z,76
2019-02-19T08:40:02.992Z,76
2019-02-19T08:41:03.546Z,76
2019-02-19T08:42:02.744Z,76
2019-02-19T08:43:03.369Z,75
2019-02-19T08:44:03.542Z,75
2019-02-19T08:45:03.250Z,75
2019-02-19T08:46:03.330Z,75
2019-02-19T08:47:03.356Z,75
2019-02-19T08:48:03.656Z,75
2019-02-19T08:49:03.501Z,75
2019-02-19T08:50:03.675Z,75
2019-02-19T08:51:03.060Z,74
2019-02-19T08:52:03.453Z,74
2019-02-19T08:53:02.930Z,74
2019-02-19T08:54:03.156Z,74
2019-02-19T08:55:02.887Z,74
2019-02-19T08:56:02.994Z,74
2019-02-19T08:57:03.479Z,74
2019-02-19T08:58:02.891Z,74
2019-02-19T08:59:03.423Z,74
2019-02-19T09:00:02.879Z,74
2019-02-19T09:01:03.104Z,74
2019-02-19T09:02:03.011Z,73
2019-02-19T09:03:03.309Z,73
2019-02-19T09:04:03.528Z,73
2019-02-19T09:05:03.542Z,73
2019-02-19T09:06:03.499Z,73
2019-02-19T09:07:03.019Z,73
2019-02-19T09:08:03.914Z,73
2019-02-19T09:09:03.131Z,72
2019-02-19T09:10:02.923Z,72
2019-02-19T09:11:03.130Z,72
2019-02-19T09:12:03.826Z,72
2019-02-19T09:13:03.255Z,72
2019-02-19T09:14:03.371Z,72
2019-02-19T09:15:02.945Z,71
2019-02-19T09:16:03.172Z,71
2019-02-19T09:17:03.669Z,71
2019-02-19T09:18:02.917Z,71
2019-02-19T09:19:03.567Z,72
2019-02-19T09:20:03.016Z,72
2019-02-19T09:21:03.636Z,71
2019-02-19T09:22:02.710Z,71
2019-02-19T09:23:03.404Z,71
2019-02-19T09:24:10.009Z,71
2019-02-19T09:25:03.598Z,70
2019-02-19T09:26:02.818Z,70
2019-02-19T09:27:03.523Z,70
2019-02-19T09:28:03.407Z,70
2019-02-19T09:29:03.037Z,70
2019-02-19T09:30:03.588Z,69
2019-02-19T09:31:03.238Z,69
2019-02-19T09:32:03.605Z,69
2019-02-19T09:33:03.275Z,69
2019-02-19T09:34:03.417Z,68
2019-02-19T09:35:03.002Z,68
2019-02-19T09:36:03.412Z,68
2019-02-19T09:37:02.921Z,68
2019-02-19T09:38:03.209Z,68
2019-02-19T09:39:02.776Z,68
2019-02-19T09:40:03.185Z,68
2019-02-19T09:41:03.578Z,68
2019-02-19T09:42:03.828Z,68
2019-02-19T09:43:03.475Z,67
2019-02-19T09:44:03.818Z,68
2019-02-19T09:45:03.230Z,68
2019-02-19T09:46:02.966Z,67
2019-02-19T09:47:03.239Z,67
2019-02-19T09:48:03.351Z,67
2019-02-19T09:49:03.470Z,67
2019-02-19T09:50:03.256Z,67
2019-02-19T09:51:03.874Z,67
2019-02-19T09:52:02.980Z,66
2019-02-19T09:53:03.742Z,66
2019-02-19T09:54:03.239Z,66
2019-02-19T09:55:03.591Z,66
2019-02-19T09:56:02.935Z,66
2019-02-19T09:57:03.410Z,66
2019-02-19T09:58:03.122Z,65
2019-02-19T09:59:03.493Z,65
2019-02-19T10:00:03.215Z,65
2019-02-19T10:01:02.983Z,65
2019-02-19T10:02:03.773Z,65
2019-02-19T10:03:03.372Z,65
2019-02-19T10:04:02.756Z,65
2019-02-19T10:05:03.584Z,64
2019-02-19T10:06:02.818Z,64
2019-02-19T10:07:03.541Z,64
2019-02-19T10:08:02.964Z,64
2019-02-19T10:09:03.447Z,63
2019-02-19T10:10:03.815Z,63
2019-02-19T10:11:03.263Z,63
2019-02-19T10:12:02.879Z,63
2019-02-19T10:13:03.362Z,63
2019-02-19T10:14:03.547Z,63
2019-02-19T10:15:03.873Z,63
2019-02-19T10:16:03.622Z,63
2019-02-19T10:17:03.305Z,63
2019-02-19T10:18:10.775Z,63
2019-02-19T10:19:02.712Z,63
2019-02-19T10:20:03.330Z,62
2019-02-19T10:21:03.735Z,62
2019-02-19T10:22:03.137Z,62
2019-02-19T10:23:03.316Z,62
2019-02-19T10:24:02.873Z,62
2019-02-19T10:25:03.772Z,61
2019-02-19T10:26:03.804Z,61
2019-02-19T10:27:03.082Z,61
2019-02-19T10:28:03.470Z,61
2019-02-19T10:29:03.356Z,61
2019-02-19T10:30:03.799Z,61
2019-02-19T10:31:03.189Z,60
2019-02-19T10:32:03.630Z,60
2019-02-19T10:33:03.880Z,60
2019-02-19T10:34:03.373Z,60
2019-02-19T10:35:03.055Z,60
2019-02-19T10:36:03.526Z,60
2019-02-19T10:37:02.768Z,59
2019-02-19T10:38:03.406Z,59
2019-02-19T10:39:03.362Z,59
2019-02-19T10:40:03.447Z,59
2019-02-19T10:41:02.933Z,59
2019-02-19T10:42:03.051Z,59
2019-02-19T10:43:03.641Z,59
2019-02-19T10:44:02.822Z,58
2019-02-19T10:45:03.516Z,58
2019-02-19T10:46:03.029Z,58
2019-02-19T10:47:03.626Z,58
2019-02-19T10:48:02.843Z,58
2019-02-19T10:49:03.623Z,58
2019-02-19T10:50:03.200Z,58
2019-02-19T10:51:03.271Z,58
2019-02-19T10:52:02.912Z,58
2019-02-19T10:53:03.340Z,58
2019-02-19T10:54:03.838Z,58
2019-02-19T10:55:03.677Z,57
2019-02-19T10:56:03.693Z,57
2019-02-19T10:57:03.234Z,57
2019-02-19T10:58:03.703Z,57
2019-02-19T10:59:03.228Z,57
2019-02-19T11:00:03.586Z,57
2019-02-19T11:01:03.489Z,57
2019-02-19T11:02:03.788Z,57
2019-02-19T11:03:03.524Z,56
2019-02-19T11:04:03.631Z,56
2019-02-19T11:05:03.180Z,56
2019-02-19T11:06:03.865Z,55
2019-02-19T11:07:03.175Z,55
2019-02-19T11:08:03.534Z,55
2019-02-19T11:09:03.373Z,55
2019-02-19T11:10:03.630Z,55
2019-02-19T11:11:03.025Z,54
2019-02-19T11:12:02.949Z,53
2019-02-19T11:13:03.756Z,53
2019-02-19T11:14:03.503Z,53
2019-02-19T11:15:03.790Z,53
2019-02-19T11:16:03.633Z,53
2019-02-19T11:17:03.204Z,53
2019-02-19T11:18:04.005Z,53
2019-02-19T11:19:03.245Z,53
2019-02-19T11:20:03.686Z,53
2019-02-19T11:21:03.107Z,53
2019-02-19T11:22:02.979Z,53
2019-02-19T11:23:03.482Z,53
2019-02-19T11:24:03.093Z,52
2019-02-19T11:25:03.409Z,52
2019-02-19T11:26:02.864Z,52
2019-02-19T11:27:03.494Z,52
2019-02-19T11:28:02.887Z,51
2019-02-19T11:29:03.629Z,51
2019-02-19T11:30:02.878Z,51
2019-02-19T11:31:03.603Z,51
2019-02-19T11:32:02.866Z,50
2019-02-19T11:33:03.662Z,50
2019-02-19T11:34:03.720Z,51
2019-02-19T11:35:03.302Z,52
2019-02-19T11:36:03.618Z,52
2019-02-19T11:37:03.299Z,51
2019-02-19T11:38:03.569Z,50
2019-02-19T11:39:03.148Z,50
2019-02-19T11:40:03.309Z,50
2019-02-19T11:41:03.918Z,50
2019-02-19T11:42:05.022Z,51
2019-02-19T11:43:03.820Z,51
2019-02-19T11:44:03.469Z,51
2019-02-19T11:45:02.944Z,49
2019-02-19T11:46:03.250Z,50
2019-02-19T11:47:03.557Z,50
2019-02-19T11:48:03.192Z,50
2019-02-19T11:49:02.783Z,50
2019-02-19T11:50:03.247Z,50
2019-02-19T11:51:02.898Z,50
2019-02-19T11:52:03.080Z,50
2019-02-19T11:53:03.325Z,50
2019-02-19T11:54:03.173Z,50
2019-02-19T11:55:03.525Z,50
2019-02-19T11:56:02.790Z,50
2019-02-19T11:57:03.129Z,50
2019-02-19T11:58:03.762Z,50
2019-02-19T11:59:03.163Z,50
2019-02-19T12:00:03.471Z,50
2019-02-19T12:01:02.967Z,50
2019-02-19T12:02:03.383Z,51
2019-02-19T12:03:03.427Z,51
2019-02-19T12:04:02.879Z,51
2019-02-19T12:05:03.449Z,51
2019-02-19T12:06:03.610Z,51
2019-02-19T12:07:02.893Z,51
2019-02-19T12:08:03.892Z,51
2019-02-19T12:09:02.968Z,51
2019-02-19T12:10:03.907Z,52
2019-02-19T12:11:03.171Z,52
2019-02-19T12:12:03.589Z,52
2019-02-19T12:13:03.595Z,52
2019-02-19T12:14:03.023Z,52
2019-02-19T12:15:03.838Z,52
2019-02-19T12:16:03.426Z,52
2019-02-19T12:17:02.999Z,52
2019-02-19T12:18:03.077Z,52
2019-02-19T12:19:03.705Z,52
2019-02-19T12:20:02.924Z,52
2019-02-19T12:21:03.200Z,52
2019-02-19T12:22:03.103Z,51
2019-02-19T12:23:03.489Z,51
2019-02-19T12:24:03.635Z,51
2019-02-19T12:25:02.801Z,51
2019-02-19T12:26:03.460Z,51
2019-02-19T12:27:03.739Z,51
2019-02-19T12:28:03.294Z,51
2019-02-19T12:29:03.040Z,51
2019-02-19T12:30:03.430Z,51
2019-02-19T12:31:03.650Z,51
2019-02-19T12:32:03.219Z,50
2019-02-19T12:33:02.721Z,51
2019-02-19T12:34:03.357Z,51
2019-02-19T12:35:03.682Z,52
2019-02-19T12:36:03.204Z,52
2019-02-19T12:37:03.678Z,52
2019-02-19T12:38:02.925Z,52
2019-02-19T12:39:03.366Z,52
2019-02-19T12:40:03.219Z,52
2019-02-19T12:41:03.543Z,52
2019-02-19T12:42:02.984Z,52
2019-02-19T12:43:03.189Z,52
2019-02-19T12:44:03.096Z,52
2019-02-19T12:45:03.187Z,52
2019-02-19T12:46:03.134Z,52
2019-02-19T12:47:03.267Z,53
2019-02-19T12:48:03.038Z,53
2019-02-19T12:49:03.465Z,53
2019-02-19T12:50:03.012Z,53
2019-02-19T12:51:03.242Z,53
2019-02-19T12:52:03.698Z,53
2019-02-19T12:53:02.890Z,53
2019-02-19T12:54:03.669Z,52
2019-02-19T12:55:03.112Z,52
2019-02-19T12:56:03.824Z,52
2019-02-19T12:57:03.633Z,52
2019-02-19T12:58:03.183Z,52
2019-02-19T12:59:02.901Z,52
2019-02-19T13:00:03.441Z,52
2019-02-19T13:01:02.805Z,52
2019-02-19T13:02:03.242Z,52
2019-02-19T13:03:03.808Z,52
2019-02-19T13:04:03.655Z,52
2019-02-19T13:05:03.029Z,52
2019-02-19T13:06:03.200Z,53
2019-02-19T13:07:03.009Z,53
2019-02-19T13:08:03.411Z,52
2019-02-19T13:09:03.455Z,52
2019-02-19T13:10:03.109Z,52
2019-02-19T13:11:03.507Z,53
2019-02-19T13:12:03.147Z,53
2019-02-19T13:13:03.091Z,53
2019-02-19T13:14:02.896Z,53
2019-02-19T13:15:03.846Z,53
2019-02-19T13:16:03.398Z,52
2019-02-19T13:17:03.474Z,52
2019-02-19T13:18:03.843Z,52
2019-02-19T13:19:04.084Z,52
2019-02-19T13:20:03.398Z,52
2019-02-19T13:21:03.284Z,52
2019-02-19T13:22:02.989Z,53
2019-02-19T13:23:03.307Z,53
2019-02-19T13:24:02.885Z,53
2019-02-19T13:25:03.617Z,53
2019-02-19T13:26:02.957Z,53
2019-02-19T13:27:03.792Z,53
2019-02-19T13:28:03.431Z,53
2019-02-19T13:29:03.728Z,52
2019-02-19T13:30:03.713Z,52
2019-02-19T13:31:03.642Z,52
2019-02-19T13:32:03.470Z,52
2019-02-19T13:33:03.680Z,52
2019-02-19T13:34:03.131Z,52
2019-02-19T13:35:02.875Z,52
2019-02-19T13:36:03.441Z,51
2019-02-19T13:37:02.977Z,51
2019-02-19T13:38:03.489Z,52
2019-02-19T13:39:03.648Z,52
2019-02-19T13:40:03.073Z,51
2019-02-19T13:41:03.765Z,51
2019-02-19T13:42:03.303Z,51
2019-02-19T13:43:03.674Z,51
2019-02-19T13:44:03.262Z,52
2019-02-19T13:45:03.583Z,52
2019-02-19T13:46:03.006Z,52
2019-02-19T13:47:03.439Z,52
2019-02-19T13:48:06.429Z,53
2019-02-19T13:49:12.670Z,53
2019-02-19T13:50:02.910Z,53
2019-02-19T13:51:03.570Z,53
2019-02-19T13:52:03.073Z,53
2019-02-19T13:53:03.452Z,53
2019-02-19T13:54:02.813Z,53
2019-02-19T13:55:03.170Z,53
2019-02-19T13:56:02.576Z,53
2019-02-19T13:57:03.506Z,53
2019-02-19T13:58:03.993Z,54
2019-02-19T13:59:03.490Z,54
2019-02-19T14:00:03.643Z,54
2019-02-19T14:01:03.185Z,54
2019-02-19T14:02:03.596Z,54
2019-02-19T14:03:03.497Z,54
2019-02-19T14:04:03.573Z,54
2019-02-19T14:05:03.683Z,54
2019-02-19T14:06:03.687Z,54
2019-02-19T14:07:03.079Z,54
2019-02-19T14:08:03.622Z,54
2019-02-19T14:09:03.323Z,54
2019-02-19T14:10:03.573Z,54
2019-02-19T14:11:03.179Z,54
2019-02-19T14:12:02.920Z,55
2019-02-19T14:13:03.153Z,54
2019-02-19T14:14:03.456Z,54
2019-02-19T14:15:03.084Z,54